Time;durP1;ratioP1;P1;durP2;ratioP2;P2;SDS_P1;SDS_P2;PMS_P1;PMS_P2;Temp;Humidity;BMP_temperature;BMP_pressure;BME280_temperature;BME280_humidity;BME280_pressure;Samples;Min_cycle;Max_cycle;Signal;HPM_P1;HPM_P2
2022/03/31 00:00:21;;;;;;;7.60;2.70;;;4.00;99.90;;;;;;4992197;28;20042;-78
2022/03/31 00:02:48;;;;;;;6.70;2.42;;;4.00;99.90;;;;;;4994298;28;20103;-76
2022/03/31 00:05:14;;;;;;;7.22;2.72;;;3.90;99.90;;;;;;5002078;28;20042;-77
2022/03/31 00:08:01;;;;;;;8.77;2.63;;;3.90;99.90;;;;;;5005477;28;20430;-77
2022/03/31 00:10:30;;;;;;;4.93;2.55;;;4.00;99.90;;;;;;5008983;28;20054;-78
2022/03/31 00:12:58;;;;;;;7.22;2.40;;;3.90;99.90;;;;;;5007319;28;20065;-78
2022/03/31 00:15:26;;;;;;;6.80;2.38;;;3.90;99.90;;;;;;4995032;28;20567;-77
2022/03/31 00:18:06;;;;;;;7.25;2.80;;;3.90;99.90;;;;;;5001931;28;21765;-81
2022/03/31 00:23:53;;;;;;;7.97;2.95;;;3.80;99.90;;;;;;5010202;28;20100;-79
2022/03/31 00:26:19;;;;;;;6.60;2.47;;;3.80;99.90;;;;;;5011373;28;20046;-78
2022/03/31 00:28:55;;;;;;;4.95;2.53;;;3.80;99.90;;;;;;5008771;28;20046;-81
2022/03/31 00:31:21;;;;;;;8.10;2.60;;;3.80;99.90;;;;;;5011648;28;20092;-79
2022/03/31 00:33:47;;;;;;;6.05;2.40;;;3.70;99.90;;;;;;5008378;28;20050;-77
2022/03/31 00:36:13;;;;;;;10.05;2.90;;;3.70;99.90;;;;;;4997542;28;20121;-76
2022/03/31 00:39:28;;;;;;;7.30;2.92;;;3.70;99.90;;;;;;5011920;28;20042;-79
2022/03/31 00:41:27;;;;;;;7.55;2.85;;;3.70;99.90;;;;;;5010872;28;20624;-77
2022/03/31 00:43:54;;;;;;;;;;;3.60;99.90;;;;;;5011436;28;20524;-78
2022/03/31 00:46:22;;;;;;;4.43;2.40;;;3.60;99.90;;;;;;5000122;28;19934;-77
2022/03/31 00:48:48;;;;;;;8.68;2.25;;;3.60;99.90;;;;;;5008609;28;20053;-77
2022/03/31 00:51:14;;;;;;;5.53;2.50;;;3.60;99.90;;;;;;5012752;28;20052;-77
2022/03/31 00:53:40;;;;;;;5.72;2.42;;;3.60;99.90;;;;;;5010058;28;20045;-77
2022/03/31 00:56:07;;;;;;;7.57;2.45;;;3.60;99.90;;;;;;5010782;28;20482;-77
2022/03/31 00:58:33;;;;;;;7.43;2.72;;;3.60;99.90;;;;;;5005840;28;20058;-77
2022/03/31 01:01:00;;;;;;;5.47;2.30;;;3.60;99.90;;;;;;5009027;28;20046;-77
2022/03/31 01:03:25;;;;;;;7.85;2.50;;;3.50;99.90;;;;;;5006168;28;20536;-78
2022/03/31 01:05:52;;;;;;;9.75;2.63;;;3.50;99.90;;;;;;5007497;28;20132;-78
2022/03/31 01:08:18;;;;;;;10.02;2.75;;;3.50;99.90;;;;;;5009876;28;20045;-79
2022/03/31 01:10:47;;;;;;;5.80;2.70;;;3.50;99.90;;;;;;5012136;28;20128;-75
2022/03/31 01:13:19;;;;;;;9.15;3.30;;;3.50;99.90;;;;;;5008229;28;20053;-77
2022/03/31 01:15:45;;;;;;;5.55;2.83;;;3.40;99.90;;;;;;4999621;28;20125;-77
2022/03/31 01:18:11;;;;;;;6.32;2.72;;;3.40;99.90;;;;;;5001955;28;20045;-78
2022/03/31 01:20:37;;;;;;;4.50;2.42;;;3.30;99.90;;;;;;5006643;28;20049;-77
2022/03/31 01:23:20;;;;;;;10.02;3.25;;;3.30;99.90;;;;;;5007622;28;20556;-78
2022/03/31 01:25:46;;;;;;;5.35;2.58;;;3.30;99.90;;;;;;5035985;28;20528;-77
2022/03/31 01:28:13;;;;;;;5.57;2.55;;;3.30;99.90;;;;;;5010348;28;20137;-77
2022/03/31 01:30:39;;;;;;;5.32;2.60;;;3.30;99.90;;;;;;5006065;28;20045;-77
2022/03/31 01:33:21;;;;;;;8.63;2.97;;;3.20;99.90;;;;;;4992694;28;20050;-79
2022/03/31 01:35:47;;;;;;;4.97;2.60;;;3.20;99.90;;;;;;5015428;28;20141;-79
2022/03/31 01:38:13;;;;;;;7.32;3.10;;;3.20;99.90;;;;;;4995381;28;20050;-77
2022/03/31 01:40:39;;;;;;;7.03;3.00;;;3.10;99.90;;;;;;5008190;28;20049;-78
2022/03/31 01:43:05;;;;;;;5.65;3.05;;;3.00;99.90;;;;;;4996418;28;20452;-77
2022/03/31 01:45:31;;;;;;;9.07;2.90;;;3.10;99.90;;;;;;5011883;28;20547;-77
2022/03/31 01:47:57;;;;;;;7.90;2.70;;;3.10;99.90;;;;;;5009452;28;20128;-78
2022/03/31 01:50:24;;;;;;;7.43;2.88;;;3.00;99.90;;;;;;4994316;28;20046;-77
2022/03/31 01:52:49;;;;;;;5.60;3.03;;;3.00;99.90;;;;;;5007375;28;20082;-77
2022/03/31 01:55:15;;;;;;;5.03;2.97;;;3.00;99.90;;;;;;5008193;28;20084;-79
2022/03/31 01:57:41;;;;;;;7.60;3.20;;;3.00;99.90;;;;;;5005066;28;20049;-78
2022/03/31 02:00:08;;;;;;;7.93;3.05;;;2.90;99.90;;;;;;5011480;28;20053;-78
2022/03/31 02:02:34;;;;;;;8.95;3.05;;;3.00;99.90;;;;;;5003228;28;20145;-78
2022/03/31 02:05:00;;;;;;;6.30;2.80;;;2.90;99.90;;;;;;5010366;28;20470;-78
2022/03/31 02:07:26;;;;;;;8.52;3.28;;;2.90;99.90;;;;;;5001497;28;20034;-77
2022/03/31 02:09:52;;;;;;;6.57;2.88;;;2.90;99.90;;;;;;4997729;28;20088;-79
2022/03/31 02:12:18;;;;;;;9.95;3.00;;;2.90;99.90;;;;;;5008431;28;20045;-77
2022/03/31 02:14:43;;;;;;;6.47;2.90;;;2.90;99.90;;;;;;5009019;28;20436;-77
2022/03/31 02:17:11;;;;;;;6.43;2.60;;;2.90;99.90;;;;;;5004654;28;20083;-78
2022/03/31 02:19:37;;;;;;;7.13;3.20;;;2.90;99.90;;;;;;5006898;28;20038;-77
2022/03/31 02:22:05;;;;;;;6.82;3.40;;;2.90;99.90;;;;;;4995210;28;20051;-77
2022/03/31 02:24:31;;;;;;;8.13;3.40;;;2.90;99.90;;;;;;5009618;28;20085;-80
2022/03/31 02:27:00;;;;;;;7.50;4.15;;;2.90;99.90;;;;;;5009314;28;20058;-78
2022/03/31 02:29:26;;;;;;;6.88;4.15;;;2.90;99.90;;;;;;5006338;28;20053;-78
2022/03/31 02:31:52;;;;;;;10.25;4.88;;;2.80;99.90;;;;;;5002830;28;20049;-78
2022/03/31 02:34:19;;;;;;;10.43;5.78;;;2.90;99.90;;;;;;5005962;28;20092;-77
2022/03/31 02:36:46;;;;;;;9.13;5.82;;;2.90;99.90;;;;;;5033737;28;20137;-79
2022/03/31 02:39:12;;;;;;;10.43;6.05;;;2.80;99.90;;;;;;5003627;28;20038;-79
2022/03/31 02:41:39;;;;;;;9.55;6.30;;;2.90;99.90;;;;;;5009880;28;20057;-79
2022/03/31 02:44:06;;;;;;;12.45;6.57;;;2.80;99.90;;;;;;5003130;28;20396;-78
2022/03/31 02:46:32;;;;;;;12.00;7.20;;;2.90;99.90;;;;;;5008217;28;20069;-80
2022/03/31 02:48:59;;;;;;;8.88;6.97;;;2.90;99.90;;;;;;5004674;28;20081;-78
2022/03/31 02:51:26;;;;;;;10.57;7.50;;;2.80;99.90;;;;;;5005632;28;20118;-78
2022/03/31 02:56:36;;;;;;;11.32;7.60;;;2.80;99.90;;;;;;5010638;28;20053;-80
2022/03/31 02:59:04;;;;;;;9.73;8.23;;;2.80;99.90;;;;;;5001146;28;20062;-78
2022/03/31 03:01:30;;;;;;;11.82;8.63;;;2.80;99.90;;;;;;4998474;28;20092;-79
2022/03/31 03:03:59;;;;;;;11.80;8.95;;;2.80;99.90;;;;;;5003140;28;20116;-78
2022/03/31 03:06:25;;;;;;;12.98;9.05;;;2.80;99.90;;;;;;5010008;28;20128;-78
2022/03/31 03:08:51;;;;;;;14.57;10.50;;;2.90;99.90;;;;;;5004517;28;20585;-77
2022/03/31 03:11:17;;;;;;;13.05;9.45;;;2.90;99.90;;;;;;5036979;28;20096;-79
2022/03/31 03:13:47;;;;;;;12.52;9.98;;;2.90;99.90;;;;;;5005314;28;20041;-77
2022/03/31 03:16:13;;;;;;;13.23;10.50;;;2.90;99.90;;;;;;4988740;28;20061;-79
2022/03/31 03:18:39;;;;;;;12.77;10.13;;;2.90;99.90;;;;;;4990919;28;20049;-78
2022/03/31 03:21:07;;;;;;;12.07;10.00;;;3.00;99.90;;;;;;4998471;28;20046;-78
2022/03/31 03:23:34;;;;;;;;;;;3.00;99.90;;;;;;5008697;28;20052;-78
2022/03/31 03:26:01;;;;;;;14.80;10.15;;;3.00;99.90;;;;;;5008535;28;19932;-79
2022/03/31 03:28:29;;;;;;;10.52;9.30;;;3.00;99.90;;;;;;5009508;28;20038;-78
2022/03/31 03:30:55;;;;;;;12.02;10.32;;;3.00;99.90;;;;;;5006882;28;20081;-78
2022/03/31 03:33:21;;;;;;;12.35;10.70;;;3.00;99.90;;;;;;5010101;28;20132;-80
2022/03/31 03:35:47;;;;;;;12.50;9.93;;;3.00;99.90;;;;;;5008768;28;20049;-77
2022/03/31 03:38:14;;;;;;;11.48;9.82;;;3.00;99.90;;;;;;5007941;28;20449;-79
2022/03/31 03:40:41;;;;;;;13.18;9.63;;;3.10;99.90;;;;;;5002257;28;20546;-79
2022/03/31 03:43:07;;;;;;;11.55;10.13;;;3.10;99.90;;;;;;4992192;28;20050;-79
2022/03/31 03:45:32;;;;;;;10.93;9.80;;;3.10;99.90;;;;;;5009963;28;20493;-80
2022/03/31 03:48:01;;;;;;;12.50;10.30;;;3.10;99.90;;;;;;5009716;28;20189;-77
2022/03/31 03:50:27;;;;;;;13.93;10.38;;;3.10;99.90;;;;;;5002558;28;20045;-77
2022/03/31 03:52:53;;;;;;;13.38;10.27;;;3.10;99.90;;;;;;5009906;28;20397;-79
2022/03/31 03:55:23;;;;;;;11.68;9.90;;;3.10;99.90;;;;;;5007340;28;20042;-81
2022/03/31 03:57:49;;;;;;;11.93;10.13;;;3.10;99.90;;;;;;5013529;28;20125;-79
2022/03/31 04:00:15;;;;;;;12.90;9.98;;;3.10;99.90;;;;;;4994887;28;20348;-77
2022/03/31 04:02:41;;;;;;;12.80;10.88;;;3.10;99.90;;;;;;4997933;28;20054;-77
2022/03/31 04:05:08;;;;;;;12.65;10.55;;;3.10;99.90;;;;;;5034783;28;20042;-80
2022/03/31 04:07:34;;;;;;;14.07;11.52;;;3.10;99.90;;;;;;4990810;28;20707;-78
2022/03/31 04:10:09;;;;;;;13.23;11.30;;;3.10;99.90;;;;;;5020407;28;20046;-79
2022/03/31 04:12:34;;;;;;;15.15;10.98;;;3.20;99.90;;;;;;5020803;28;20383;-78
2022/03/31 04:15:02;;;;;;;13.32;10.20;;;3.10;99.90;;;;;;4989351;28;20053;-77
2022/03/31 04:17:28;;;;;;;;;;;3.20;99.90;;;;;;4988750;28;20058;-77
2022/03/31 04:19:57;;;;;;;12.60;10.52;;;3.10;99.90;;;;;;4990206;28;19925;-77
2022/03/31 04:22:23;;;;;;;13.65;11.45;;;3.10;99.90;;;;;;5007454;28;20057;-78
2022/03/31 04:24:49;;;;;;;13.85;11.23;;;3.00;99.90;;;;;;4992494;28;20688;-77
2022/03/31 04:27:14;;;;;;;14.18;12.13;;;3.00;99.90;;;;;;5005771;28;20081;-77
2022/03/31 04:29:40;;;;;;;14.45;11.85;;;3.10;99.90;;;;;;5008853;28;20131;-79
2022/03/31 04:32:07;;;;;;;12.88;11.35;;;3.00;99.90;;;;;;4988451;28;20039;-77
2022/03/31 04:34:34;;;;;;;11.75;10.38;;;3.00;99.90;;;;;;4989953;28;20039;-78
2022/03/31 04:37:00;;;;;;;13.90;11.27;;;3.00;99.90;;;;;;4989411;28;20061;-78
2022/03/31 04:39:26;;;;;;;13.27;11.63;;;3.00;99.90;;;;;;4989166;28;20288;-77
2022/03/31 04:41:52;;;;;;;13.07;11.15;;;3.00;99.90;;;;;;5002008;28;20050;-77
2022/03/31 04:44:19;;;;;;;12.85;11.35;;;3.00;99.90;;;;;;5008864;28;20092;-77
2022/03/31 04:46:46;;;;;;;14.93;11.63;;;3.00;99.90;;;;;;5002240;28;20048;-78
2022/03/31 04:49:12;;;;;;;14.13;11.88;;;3.00;99.90;;;;;;4997130;28;20251;-80
2022/03/31 04:51:39;;;;;;;14.48;12.13;;;3.00;99.90;;;;;;4998579;28;20042;-77
2022/03/31 04:54:05;;;;;;;13.32;11.63;;;3.00;99.90;;;;;;5007816;28;20049;-78
2022/03/31 04:56:31;;;;;;;14.07;12.20;;;3.00;99.90;;;;;;5009167;28;20072;-78
2022/03/31 04:58:57;;;;;;;12.85;11.40;;;3.10;99.90;;;;;;5006759;28;20042;-78
2022/03/31 05:01:23;;;;;;;12.98;11.57;;;3.00;99.90;;;;;;5002189;28;20058;-79
2022/03/31 05:03:50;;;;;;;13.82;12.18;;;3.10;99.90;;;;;;4996800;28;20440;-78
2022/03/31 05:06:16;;;;;;;13.38;11.70;;;3.00;99.90;;;;;;5002317;28;20053;-79
2022/03/31 05:08:42;;;;;;;13.90;12.40;;;3.00;99.90;;;;;;5008244;28;20046;-77
2022/03/31 05:11:08;;;;;;;12.75;11.35;;;3.00;99.90;;;;;;5000460;28;20935;-79
2022/03/31 05:13:34;;;;;;;12.95;11.32;;;3.00;99.90;;;;;;5009062;28;20038;-78
2022/03/31 05:16:00;;;;;;;13.00;11.55;;;3.00;99.90;;;;;;5011460;28;20695;-79
2022/03/31 05:18:30;;;;;;;14.15;12.10;;;3.10;99.90;;;;;;5009566;28;20045;-80
2022/03/31 05:20:56;;;;;;;13.48;12.07;;;3.00;99.90;;;;;;5000699;28;20045;-78
2022/03/31 05:23:28;;;;;;;14.52;12.07;;;3.00;99.90;;;;;;5010193;28;20404;-79
2022/03/31 05:25:54;;;;;;;14.88;13.27;;;3.10;99.90;;;;;;5012212;28;20456;-85
2022/03/31 05:28:20;;;;;;;15.07;12.77;;;3.00;99.90;;;;;;5011686;28;20089;-78
2022/03/31 05:30:46;;;;;;;13.32;11.77;;;3.10;99.90;;;;;;4999293;28;20073;-77
2022/03/31 05:33:12;;;;;;;13.02;11.63;;;3.10;99.90;;;;;;4993338;28;20494;-80
2022/03/31 05:35:38;;;;;;;13.98;12.40;;;3.10;99.90;;;;;;5006254;28;20038;-79
2022/03/31 05:38:04;;;;;;;12.82;11.48;;;3.00;99.90;;;;;;5010385;28;20045;-81
2022/03/31 05:40:30;;;;;;;13.48;12.05;;;3.00;99.90;;;;;;5008978;28;20054;-82
2022/03/31 05:42:56;;;;;;;14.15;12.07;;;3.00;99.90;;;;;;4992932;28;20050;-79
2022/03/31 05:45:22;;;;;;;13.98;12.30;;;3.00;99.90;;;;;;5004840;28;20034;-82
2022/03/31 05:47:48;;;;;;;13.80;12.25;;;3.00;99.90;;;;;;5011220;28;20478;-77
2022/03/31 05:50:14;;;;;;;14.90;12.68;;;2.90;99.90;;;;;;5010572;28;20042;-79
2022/03/31 05:52:42;;;;;;;14.07;12.50;;;3.00;99.90;;;;;;5008610;28;20180;-78
2022/03/31 05:55:13;;;;;;;15.18;13.43;;;3.00;99.90;;;;;;5010088;28;20841;-79
2022/03/31 05:57:39;;;;;;;13.80;12.27;;;3.00;99.90;;;;;;5006543;28;20070;-78
2022/03/31 06:00:08;;;;;;;14.68;13.07;;;3.00;99.90;;;;;;5006401;28;20049;-77
2022/03/31 06:02:34;;;;;;;13.73;12.25;;;3.00;99.90;;;;;;5010122;28;20639;-80
2022/03/31 06:05:00;;;;;;;14.10;12.68;;;3.00;99.90;;;;;;5002497;28;20061;-81
2022/03/31 06:07:26;;;;;;;15.55;13.82;;;3.00;99.90;;;;;;5004532;28;20042;-80
2022/03/31 06:09:51;;;;;;;14.60;13.10;;;3.00;99.90;;;;;;5003722;28;20052;-78
2022/03/31 06:12:17;;;;;;;14.43;12.93;;;3.10;99.90;;;;;;5001664;28;20049;-80
2022/03/31 06:14:44;;;;;;;15.90;14.30;;;3.00;99.90;;;;;;5004798;28;20096;-78
2022/03/31 06:17:09;;;;;;;15.13;13.50;;;3.00;99.90;;;;;;5009370;28;20077;-77
2022/03/31 06:19:35;;;;;;;13.73;12.32;;;3.10;99.90;;;;;;5029200;28;20123;-78
2022/03/31 06:22:01;;;;;;;15.15;13.38;;;3.00;99.90;;;;;;5031657;28;20042;-78
2022/03/31 06:24:27;;;;;;;15.70;14.10;;;3.00;99.90;;;;;;5001160;28;20452;-81
2022/03/31 06:26:56;;;;;;;15.93;14.32;;;3.10;99.90;;;;;;5000420;28;20176;-77
2022/03/31 06:29:22;;;;;;;16.85;15.05;;;3.10;99.90;;;;;;5000333;28;20132;-79
2022/03/31 06:31:48;;;;;;;17.23;15.35;;;3.10;99.90;;;;;;4996981;28;20065;-78
2022/03/31 06:34:17;;;;;;;16.10;14.40;;;3.10;99.90;;;;;;5006795;28;20040;-78
2022/03/31 06:36:43;;;;;;;16.65;14.85;;;3.10;99.90;;;;;;5007288;28;20051;-78
2022/03/31 06:39:08;;;;;;;16.17;14.57;;;3.10;99.90;;;;;;5007303;28;20052;-80
2022/03/31 06:41:34;;;;;;;16.75;14.95;;;3.10;99.90;;;;;;5008637;28;20125;-78
2022/03/31 06:44:00;;;;;;;16.50;14.70;;;3.10;99.90;;;;;;5000283;28;20045;-80
2022/03/31 06:46:26;;;;;;;18.90;16.90;;;3.10;99.90;;;;;;5001753;28;20042;-78
2022/03/31 06:48:52;;;;;;;17.90;16.00;;;3.10;99.90;;;;;;5006777;28;20042;-80
2022/03/31 06:51:18;;;;;;;17.35;15.55;;;3.10;99.90;;;;;;5007045;28;20124;-82
2022/03/31 06:53:44;;;;;;;17.17;15.15;;;3.10;99.90;;;;;;4998407;28;20064;-80
2022/03/31 06:56:13;;;;;;;19.13;16.98;;;3.10;99.90;;;;;;5010905;28;20092;-79
2022/03/31 06:58:40;;;;;;;18.02;16.13;;;3.10;99.90;;;;;;5010129;28;20054;-79
2022/03/31 07:01:06;;;;;;;19.75;17.65;;;3.20;99.90;;;;;;5035749;28;20042;-86
2022/03/31 07:03:36;;;;;;;20.08;17.90;;;3.20;99.90;;;;;;5001525;28;20046;-90
2022/03/31 07:06:23;;;;;;;20.48;17.17;;;3.20;99.90;;;;;;5000520;28;20497;-85
2022/03/31 07:08:52;;;;;;;17.65;15.60;;;3.20;99.90;;;;;;5010622;28;20121;-81
2022/03/31 07:11:30;;;;;;;20.48;17.63;;;3.30;99.90;;;;;;4995537;28;20042;-84
2022/03/31 07:13:56;;;;;;;19.20;16.85;;;3.20;99.90;;;;;;4993921;28;20097;-74
2022/03/31 07:16:22;;;;;;;19.00;16.95;;;3.20;99.90;;;;;;5023275;28;20042;-81
2022/03/31 07:18:51;;;;;;;19.90;17.80;;;3.30;99.90;;;;;;4996640;28;20466;-80
2022/03/31 07:21:20;;;;;;;21.23;17.85;;;3.30;99.90;;;;;;5003928;28;20505;-81
2022/03/31 07:23:48;;;;;;;20.98;18.67;;;3.30;99.90;;;;;;5006767;28;20084;-80
2022/03/31 07:26:15;;;;;;;23.33;18.70;;;3.30;99.90;;;;;;5026395;28;20038;-84
2022/03/31 07:28:41;;;;;;;21.42;18.95;;;3.30;99.90;;;;;;5002744;28;20401;-81
2022/03/31 07:31:07;;;;;;;23.90;20.92;;;3.30;99.90;;;;;;4997870;28;20042;-78
2022/03/31 07:33:33;;;;;;;22.58;19.83;;;3.40;99.90;;;;;;5003989;28;20046;-79
2022/03/31 07:35:59;;;;;;;26.35;21.42;;;3.40;99.90;;;;;;5007566;28;20103;-77
2022/03/31 07:38:24;;;;;;;27.35;22.95;;;3.40;99.90;;;;;;5033246;28;20049;-78
2022/03/31 07:40:51;;;;;;;25.63;22.23;;;3.40;99.90;;;;;;5000335;28;20050;-78
2022/03/31 07:43:17;;;;;;;27.58;22.17;;;3.50;99.90;;;;;;4990632;28;20397;-76
2022/03/31 07:45:46;;;;;;;28.42;23.08;;;3.50;99.90;;;;;;5021394;28;20129;-74
2022/03/31 07:48:15;;;;;;;26.83;22.67;;;3.60;99.90;;;;;;4990589;28;20553;-76
2022/03/31 07:50:42;;;;;;;29.17;23.60;;;3.60;99.90;;;;;;4995580;28;20034;-75
2022/03/31 07:53:10;;;;;;;31.05;24.17;;;3.60;99.90;;;;;;5001217;28;20500;-75
2022/03/31 07:55:37;;;;;;;28.08;23.00;;;3.60;99.90;;;;;;4996361;28;20474;-78
2022/03/31 07:58:03;;;;;;;31.10;23.55;;;3.70;99.90;;;;;;4995011;28;20487;-79
2022/03/31 08:00:29;;;;;;;25.40;22.58;;;3.60;99.90;;;;;;4998572;28;20030;-79
2022/03/31 08:02:58;;;;;;;25.58;22.15;;;3.60;99.90;;;;;;5003221;28;20073;-77
2022/03/31 08:05:27;;;;;;;28.42;23.52;;;3.60;99.90;;;;;;5004407;28;20060;-78
2022/03/31 08:07:53;;;;;;;28.25;23.60;;;3.70;99.90;;;;;;4999944;28;20051;-76
2022/03/31 08:10:20;;;;;;;36.40;26.10;;;3.70;99.90;;;;;;4993956;28;20129;-77
2022/03/31 08:12:46;;;;;;;31.33;24.60;;;3.70;99.90;;;;;;5004961;28;20133;-78
2022/03/31 08:15:16;;;;;;;26.30;21.50;;;3.70;99.90;;;;;;4998668;28;20058;-80
2022/03/31 08:17:43;;;;;;;27.75;22.23;;;3.70;99.90;;;;;;5002367;28;20120;-77
2022/03/31 08:20:11;;;;;;;28.63;22.77;;;3.70;99.90;;;;;;5007298;28;20516;-77
2022/03/31 08:22:38;;;;;;;26.10;22.70;;;3.80;99.90;;;;;;4992611;28;20061;-78
2022/03/31 08:25:06;;;;;;;26.40;22.70;;;3.80;99.90;;;;;;4996627;28;20046;-78
2022/03/31 08:27:35;;;;;;;;;;;3.80;99.90;;;;;;5011066;28;20125;-77
2022/03/31 08:30:11;;;;;;;21.02;18.65;;;3.80;99.90;;;;;;5004464;28;19964;-78
2022/03/31 08:32:39;;;;;;;21.05;18.45;;;3.80;99.90;;;;;;5003446;28;20050;-77
2022/03/31 08:35:07;;;;;;;22.50;19.13;;;3.80;99.90;;;;;;5003499;28;20046;-77
2022/03/31 08:37:33;;;;;;;;;;;3.80;99.90;;;;;;5005094;28;20109;-75
2022/03/31 08:39:59;;;;;;;19.02;15.27;;;3.90;99.90;;;;;;5002161;28;19922;-76
2022/03/31 08:42:31;;;;;;;18.88;16.35;;;3.80;99.90;;;;;;4990602;28;20141;-76
2022/03/31 08:44:59;;;;;;;16.50;13.90;;;3.90;99.90;;;;;;4994308;28;20109;-78
2022/03/31 08:47:26;;;;;;;15.15;13.10;;;3.90;99.90;;;;;;5013199;28;20085;-79
2022/03/31 08:49:55;;;;;;;16.88;14.05;;;3.90;99.90;;;;;;5011325;28;20050;-76
2022/03/31 08:52:22;;;;;;;13.90;12.40;;;3.80;99.90;;;;;;5010173;28;20045;-79
2022/03/31 08:54:49;;;;;;;13.27;11.88;;;3.80;99.90;;;;;;5020563;28;20050;-77
2022/03/31 08:57:16;;;;;;;13.93;12.43;;;3.80;99.90;;;;;;5018215;28;20034;-79
2022/03/31 08:59:43;;;;;;;14.20;12.43;;;3.80;99.90;;;;;;5014443;28;20054;-78
2022/03/31 09:02:53;;;;;;;12.65;11.35;;;3.70;99.90;;;;;;5012149;28;20046;-80
2022/03/31 09:05:19;;;;;;;;;;;3.80;99.90;;;;;;5031777;28;20056;-77
2022/03/31 09:07:56;;;;;;;12.93;11.63;;;3.70;99.90;;;;;;5014322;28;19921;-77
2022/03/31 09:10:31;;;;;;;12.45;10.90;;;3.70;99.90;;;;;;4999945;28;20115;-81
2022/03/31 09:12:59;;;;;;;12.38;11.07;;;3.70;99.90;;;;;;5004625;28;20133;-77
2022/03/31 09:15:25;;;;;;;11.88;10.60;;;3.70;99.90;;;;;;5012857;28;20045;-78
2022/03/31 09:17:58;;;;;;;11.43;10.23;;;3.80;99.90;;;;;;5009307;28;20042;-78
2022/03/31 09:20:39;;;;;;;11.63;10.13;;;3.70;99.90;;;;;;5012492;28;20042;-79
2022/03/31 09:23:05;;;;;;;11.05;9.73;;;3.70;99.90;;;;;;5011242;28;20042;-78
2022/03/31 09:25:32;;;;;;;9.93;8.93;;;3.70;99.90;;;;;;5044759;28;20042;-76
2022/03/31 09:28:00;;;;;;;10.48;8.38;;;3.70;99.90;;;;;;5008416;28;20127;-81
2022/03/31 09:30:31;;;;;;;10.02;8.95;;;3.60;99.90;;;;;;5012404;28;20456;-82
2022/03/31 09:33:02;;;;;;;9.50;8.50;;;3.60;99.90;;;;;;5010991;28;20091;-78
2022/03/31 09:35:28;;;;;;;10.18;9.18;;;3.60;99.90;;;;;;5032063;28;20053;-80
2022/03/31 09:37:55;;;;;;;10.55;9.00;;;3.60;99.90;;;;;;5022331;28;20149;-79
2022/03/31 09:40:36;;;;;;;9.35;8.35;;;3.50;99.90;;;;;;5003333;28;20070;-79
2022/03/31 09:43:02;;;;;;;9.07;8.13;;;3.50;99.90;;;;;;4991450;28;20566;-77
2022/03/31 09:45:41;;;;;;;9.07;7.70;;;3.50;99.90;;;;;;4998041;28;20393;-74
2022/03/31 09:48:25;;;;;;;7.78;6.97;;;3.40;99.90;;;;;;5009689;28;20041;-82
2022/03/31 09:50:57;;;;;;;7.90;7.10;;;3.40;99.90;;;;;;5006803;28;20180;-78
2022/03/31 09:53:32;;;;;;;7.90;7.07;;;3.20;99.90;;;;;;5024895;28;20049;-74
2022/03/31 09:56:00;;;;;;;9.00;7.60;;;3.10;99.90;;;;;;5000482;28;20037;-79
2022/03/31 09:58:33;;;;;;;7.45;6.75;;;3.10;99.90;;;;;;5010865;28;20046;-80
2022/03/31 10:00:59;;;;;;;7.78;7.07;;;3.00;99.90;;;;;;5009737;28;20037;-81
2022/03/31 10:03:26;;;;;;;7.72;6.93;;;3.00;99.90;;;;;;5004080;28;20383;-78
2022/03/31 10:05:53;;;;;;;8.43;7.63;;;2.90;99.90;;;;;;5024997;28;20042;-82
2022/03/31 10:08:19;;;;;;;8.10;7.32;;;3.00;99.90;;;;;;5002823;28;20073;-89
2022/03/31 10:10:46;;;;;;;7.90;7.10;;;3.00;99.90;;;;;;5026390;28;20038;-82
2022/03/31 10:13:15;;;;;;;8.33;7.53;;;2.90;99.90;;;;;;5011291;28;20046;-75
2022/03/31 10:15:43;;;;;;;8.55;7.70;;;2.90;99.90;;;;;;5011374;28;20492;-75
2022/03/31 10:18:12;;;;;;;8.05;7.25;;;2.90;99.90;;;;;;5010839;28;20049;-76
2022/03/31 10:20:52;;;;;;;7.93;7.13;;;2.90;99.90;;;;;;5008483;28;20042;-78
2022/03/31 10:26:03;;;;;;;7.53;6.72;;;2.90;99.90;;;;;;5009139;28;20564;-74
2022/03/31 10:28:29;;;;;;;10.77;8.30;;;2.90;99.90;;;;;;5011388;28;20038;-79
2022/03/31 10:30:59;;;;;;;8.60;7.70;;;2.90;99.90;;;;;;5010129;28;20044;-79
2022/03/31 10:33:43;;;;;;;9.10;8.20;;;3.00;99.90;;;;;;5043282;28;20132;-76
2022/03/31 10:36:14;;;;;;;10.45;9.35;;;3.00;99.90;;;;;;5010617;28;20053;-77
2022/03/31 10:38:59;;;;;;;10.52;9.43;;;3.00;99.90;;;;;;5039322;28;20050;-78
2022/03/31 10:41:30;;;;;;;9.77;8.77;;;3.00;99.90;;;;;;5033313;28;20100;-78
2022/03/31 10:43:59;;;;;;;9.98;8.88;;;3.00;99.90;;;;;;5010468;28;20053;-83
2022/03/31 10:46:28;;;;;;;11.07;9.68;;;3.00;99.90;;;;;;5008170;28;20461;-80
2022/03/31 10:48:58;;;;;;;11.63;9.32;;;3.10;99.90;;;;;;5038720;28;20054;-81
2022/03/31 10:51:32;;;;;;;10.88;9.73;;;3.10;99.90;;;;;;5038407;28;20104;-76
2022/03/31 10:53:59;;;;;;;10.50;9.40;;;3.10;99.90;;;;;;5007540;28;20537;-81
2022/03/31 10:56:28;;;;;;;11.85;10.23;;;3.10;99.90;;;;;;5008107;28;20378;-76
2022/03/31 10:59:00;;;;;;;11.55;10.15;;;3.20;99.90;;;;;;5007955;28;20112;-78
2022/03/31 11:01:33;;;;;;;12.35;10.48;;;3.30;99.90;;;;;;5039335;28;20123;-77
2022/03/31 11:04:06;;;;;;;12.77;11.48;;;3.30;99.90;;;;;;5009707;28;20046;-77
2022/03/31 11:06:33;;;;;;;13.25;11.10;;;3.40;99.90;;;;;;5009368;28;20045;-82
2022/03/31 11:08:59;;;;;;;12.95;11.48;;;3.40;99.90;;;;;;5011281;28;20045;-81
2022/03/31 11:11:29;;;;;;;12.60;11.05;;;3.50;99.90;;;;;;5006807;28;20547;-76
2022/03/31 11:13:57;;;;;;;14.10;12.60;;;3.60;99.90;;;;;;5008355;28;20389;-82
2022/03/31 11:16:37;;;;;;;13.70;11.88;;;3.60;99.90;;;;;;5010462;28;20046;-81
2022/03/31 11:19:04;;;;;;;13.90;12.40;;;3.70;99.90;;;;;;5009734;28;20050;-80
2022/03/31 11:21:39;;;;;;;14.95;13.30;;;3.70;99.90;;;;;;5029617;28;20042;-78
2022/03/31 11:24:09;;;;;;;15.52;13.02;;;3.80;99.90;;;;;;5004683;28;20045;-78
2022/03/31 11:26:40;;;;;;;14.80;12.95;;;3.90;99.90;;;;;;5002194;28;20108;-78
2022/03/31 11:29:15;;;;;;;14.52;12.98;;;3.90;99.90;;;;;;4990573;28;20130;-78
2022/03/31 11:31:51;;;;;;;15.85;13.70;;;4.00;99.90;;;;;;5005902;28;20077;-79
2022/03/31 11:34:23;;;;;;;17.38;14.80;;;4.00;99.90;;;;;;5003027;28;20050;-89
2022/03/31 11:36:51;;;;;;;16.77;14.55;;;4.10;99.90;;;;;;5027473;28;20052;-79
2022/03/31 11:39:28;;;;;;;17.67;15.00;;;4.10;99.90;;;;;;5009439;28;20052;-80
2022/03/31 11:41:55;;;;;;;16.75;14.95;;;4.10;99.90;;;;;;5003397;28;20054;-79
2022/03/31 11:44:24;;;;;;;17.90;15.70;;;4.10;99.90;;;;;;4993468;28;20047;-76
2022/03/31 11:46:50;;;;;;;;;;;4.20;99.90;;;;;;4994714;28;20478;-78
2022/03/31 11:49:43;;;;;;;22.13;17.85;;;4.20;99.90;;;;;;5005629;28;19926;-78
2022/03/31 11:52:09;;;;;;;20.70;17.95;;;4.10;99.90;;;;;;4998352;28;20092;-76
2022/03/31 11:54:43;;;;;;;22.85;19.08;;;4.20;99.90;;;;;;4995613;28;20054;-80
2022/03/31 11:57:12;;;;;;;25.45;19.75;;;4.30;99.90;;;;;;5009681;28;20050;-80
2022/03/31 11:59:38;;;;;;;26.17;19.70;;;4.30;99.90;;;;;;5004799;28;20042;-81
2022/03/31 12:02:17;;;;;;;26.17;21.20;;;4.40;99.90;;;;;;5037166;28;20081;-76
2022/03/31 12:04:45;;;;;;;26.88;21.35;;;4.40;99.90;;;;;;5008103;28;20496;-78
2022/03/31 12:07:14;;;;;;;28.35;22.83;;;4.40;99.90;;;;;;5010050;28;20378;-79
2022/03/31 12:09:42;;;;;;;34.70;24.42;;;4.40;99.90;;;;;;5006484;28;20050;-80
2022/03/31 12:12:12;;;;;;;31.17;24.63;;;4.40;99.90;;;;;;5004764;28;20057;-84
2022/03/31 12:14:42;;;;;;;33.28;24.38;;;4.50;99.90;;;;;;5001882;28;20575;-80
2022/03/31 12:17:18;;;;;;;33.33;25.38;;;4.50;99.90;;;;;;4999829;28;20383;-78
2022/03/31 12:19:44;;;;;;;37.20;27.63;;;4.50;99.90;;;;;;5004296;28;20461;-79
2022/03/31 12:22:10;;;;;;;37.83;27.55;;;4.50;99.90;;;;;;5020949;28;20474;-78
2022/03/31 12:24:52;;;;;;;39.97;29.33;;;4.50;99.90;;;;;;4998829;28;20129;-76
2022/03/31 12:27:18;;;;;;;43.10;29.55;;;4.60;99.90;;;;;;5003903;28;20042;-79
2022/03/31 12:29:56;;;;;;;44.37;34.23;;;4.60;99.90;;;;;;5005868;28;20085;-78
2022/03/31 12:32:22;;;;;;;45.15;33.25;;;4.60;99.90;;;;;;5031044;28;20925;-77
2022/03/31 12:34:59;;;;;;;49.22;33.95;;;4.70;99.90;;;;;;5006004;28;20043;-76
2022/03/31 12:37:37;;;;;;;47.38;34.00;;;4.70;99.90;;;;;;5003605;28;20133;-86
2022/03/31 12:40:10;;;;;;;47.90;34.80;;;4.70;99.90;;;;;;5003121;28;20057;-80
2022/03/31 12:42:38;;;;;;;51.72;36.97;;;4.80;99.90;;;;;;5006939;28;20129;-80
2022/03/31 12:45:14;;;;;;;47.92;35.83;;;4.80;99.90;;;;;;5007903;28;20042;-81
2022/03/31 12:47:42;;;;;;;48.07;35.23;;;4.80;99.90;;;;;;5007465;28;20056;-80
2022/03/31 12:50:34;;;;;;;;;;;4.90;99.90;;;;;;5001875;28;20320;-80
2022/03/31 12:53:03;;;;;;;44.13;31.85;;;4.90;99.90;;;;;;5003416;28;19972;-78
2022/03/31 12:55:34;;;;;;;44.80;33.80;;;4.90;99.90;;;;;;5010764;28;20134;-78
2022/03/31 12:58:01;;;;;;;43.67;32.05;;;4.90;99.90;;;;;;5001691;28;20130;-79
2022/03/31 13:00:29;;;;;;;38.92;28.98;;;4.90;99.90;;;;;;5005991;28;20046;-80